createdAt,value
2023-03-18T00:03:03.719Z,97840.91
2023-03-18T00:08:06.626Z,97834.66
2023-03-18T00:13:08.437Z,97830.47
2023-03-18T00:18:10.209Z,97832.16
2023-03-18T00:23:13.125Z,97830.22
2023-03-18T00:28:17.354Z,97826.31
2023-03-18T00:33:21.080Z,97836.34
2023-03-18T00:38:22.946Z,97826.56
2023-03-18T00:43:29.526Z,97832.34
2023-03-18T00:48:31.569Z,97820.75
2023-03-18T00:53:33.514Z,97816.84
2023-03-18T00:58:36.999Z,97805.22
2023-03-18T01:03:44.883Z,97810.56
2023-03-18T01:08:46.885Z,97806.63
2023-03-18T01:13:49.364Z,97791.81
2023-03-18T01:18:52.446Z,97800.63
2023-03-18T01:23:54.389Z,97799.47
2023-03-18T01:28:57.125Z,97798.25
2023-03-18T01:33:59.844Z,97801.75
2023-03-18T01:39:03.086Z,97790.88
2023-03-18T01:44:13.545Z,97777.00
2023-03-18T01:49:47.726Z,97784.69
2023-03-18T01:54:57.877Z,97783.19
2023-03-18T02:00:00.748Z,97789.38
2023-03-18T02:05:06.545Z,97784.59
2023-03-18T02:10:21.848Z,97785.31
2023-03-18T02:15:27.283Z,97801.44
2023-03-18T02:20:47.067Z,97797.41
2023-03-18T02:26:31.022Z,97808.66
2023-03-18T02:31:38.763Z,97817.91
2023-03-18T02:36:41.458Z,97822.16
2023-03-18T02:41:45.939Z,97807.53
2023-03-18T02:47:06.158Z,97818.41
2023-03-18T02:52:08.319Z,97839.69
2023-03-18T02:57:11.207Z,97842.41
2023-03-18T03:02:20.358Z,97850.06
2023-03-18T03:07:27.127Z,97839.25
2023-03-18T03:12:29.739Z,97869.31
2023-03-18T03:17:33.827Z,97860.69
2023-03-18T03:22:35.800Z,97858.25
2023-03-18T03:27:38.078Z,97867.47
2023-03-18T03:32:40.428Z,97860.97
2023-03-18T03:37:45.926Z,97855.09
2023-03-18T03:42:48.996Z,97870.84
2023-03-18T03:47:51.530Z,97870.84
2023-03-18T03:52:53.553Z,97878.97
2023-03-18T03:57:55.456Z,97880.38
2023-03-18T04:02:58.175Z,97888.91
2023-03-18T04:08:00.268Z,97893.88
2023-03-18T04:13:12.905Z,97898.72
2023-03-18T04:18:17.034Z,97899.31
2023-03-18T04:23:19.748Z,97906.53
2023-03-18T04:28:21.803Z,97907.66
2023-03-18T04:33:24.818Z,97904.84
2023-03-18T04:38:28.370Z,97911.78
2023-03-18T04:43:30.519Z,97917.69
2023-03-18T04:48:32.466Z,97920.47
2023-03-18T04:53:39.558Z,97923.94
2023-03-18T04:58:44.454Z,97923.06
2023-03-18T05:03:51.870Z,97923.53
2023-03-18T05:08:57.212Z,97918.06
2023-03-18T05:14:01.953Z,97920.75
2023-03-18T05:19:09.836Z,97923.69
2023-03-18T05:24:17.491Z,97921.69
2023-03-18T05:29:19.578Z,97925.84
2023-03-18T05:34:47.748Z,97931.44
2023-03-18T05:39:50.390Z,97927.06
2023-03-18T05:44:55.260Z,97934.81
2023-03-18T05:49:59.926Z,97937.38
2023-03-18T05:55:03.380Z,97939.09
2023-03-18T06:00:10.196Z,97939.75
2023-03-18T06:05:19.381Z,97950.31
2023-03-18T06:10:23.154Z,97950.09
2023-03-18T06:15:26.614Z,97946.28
2023-03-18T06:20:28.438Z,97951.88
2023-03-18T06:25:30.287Z,97960.19
2023-03-18T06:30:32.480Z,97967.28
2023-03-18T06:35:35.712Z,97958.59
2023-03-18T06:40:38.301Z,97967.19
2023-03-18T06:45:42.047Z,97962.28
2023-03-18T06:50:44.967Z,97971.94
2023-03-18T06:55:54.217Z,97973.69
2023-03-18T07:01:00.384Z,97969.84
2023-03-18T07:06:10.360Z,97965.41
2023-03-18T07:11:13.399Z,97972.38
2023-03-18T07:16:17.688Z,97973.16
2023-03-18T07:21:19.809Z,97985.22
2023-03-18T07:26:23.168Z,97972.13
2023-03-18T07:31:25.498Z,97967.53
2023-03-18T07:36:28.413Z,97975.31
2023-03-18T07:41:30.780Z,97973.25
2023-03-18T07:46:32.574Z,97971.94
2023-03-18T07:51:34.455Z,97958.19
2023-03-18T07:56:36.221Z,97970.44
2023-03-18T08:01:39.652Z,97972.16
2023-03-18T08:06:41.688Z,97967.38
2023-03-18T08:11:44.031Z,97974.66
2023-03-18T08:16:46.044Z,97970.00
2023-03-18T08:21:48.125Z,97978.69
2023-03-18T08:26:56.302Z,97974.25
2023-03-18T08:31:58.611Z,97987.03
2023-03-18T08:37:00.985Z,97982.25
2023-03-18T08:42:04.639Z,97974.25
2023-03-18T08:47:06.837Z,97988.78
2023-03-18T08:52:08.684Z,97992.78
2023-03-18T08:57:10.802Z,98000.69
2023-03-18T09:02:18.501Z,98000.94
2023-03-18T09:07:20.399Z,98002.69
2023-03-18T09:12:22.728Z,98000.03
2023-03-18T09:17:39.151Z,97998.19
2023-03-18T09:22:47.418Z,98006.06
2023-03-18T09:27:49.358Z,97993.56
2023-03-18T09:32:51.156Z,97997.53
2023-03-18T09:37:54.085Z,97995.19
2023-03-18T09:43:02.552Z,97992.84
2023-03-18T09:48:23.087Z,97991.66
2023-03-18T09:54:08.775Z,97983.38
2023-03-18T09:59:20.198Z,97985.72
2023-03-18T10:04:26.732Z,97977.56
2023-03-18T10:09:41.689Z,97969.25
2023-03-18T10:14:53.301Z,97977.22
2023-03-18T10:19:58.584Z,97972.09
2023-03-18T10:25:24.219Z,97976.75
2023-03-18T10:31:15.518Z,97979.16
2023-03-18T10:36:23.601Z,97979.88
2023-03-18T10:41:39.082Z,97987.72
2023-03-18T10:46:51.183Z,97989.50
2023-03-18T10:52:06.269Z,97988.75
2023-03-18T10:57:18.055Z,97991.66
2023-03-18T11:02:36.510Z,97999.50
2023-03-18T11:08:03.639Z,97992.50
2023-03-18T11:13:06.558Z,98000.78
2023-03-18T11:18:18.410Z,98005.50
2023-03-18T11:23:48.851Z,98003.13
2023-03-18T11:28:59.003Z,97997.66
2023-03-18T11:34:04.186Z,98009.34
2023-03-18T11:39:07.013Z,97999.91
2023-03-18T11:44:18.760Z,98005.75
2023-03-18T11:49:23.631Z,97999.31
2023-03-18T11:54:25.349Z,98010.03
2023-03-18T11:59:29.878Z,98004.88
2023-03-18T12:04:52.880Z,98006.50
2023-03-18T12:10:15.142Z,98004.88
2023-03-18T12:15:55.257Z,98001.19
2023-03-18T12:21:15.021Z,97993.09
2023-03-18T12:26:40.780Z,97995.41
2023-03-18T12:32:07.430Z,97989.13
2023-03-18T12:37:20.504Z,98003.19
2023-03-18T12:42:31.512Z,97995.81
2023-03-18T12:47:41.440Z,97993.81
2023-03-18T12:52:58.894Z,97989.94
2023-03-18T12:58:11.248Z,97999.72
2023-03-18T13:03:18.879Z,97987.94
2023-03-18T13:08:46.907Z,97987.50
2023-03-18T13:13:55.923Z,97996.88
2023-03-18T13:18:59.766Z,97992.50
2023-03-18T13:24:08.800Z,97996.91
2023-03-18T13:29:46.287Z,97985.72
2023-03-18T13:34:48.021Z,97991.19
2023-03-18T13:40:03.130Z,97988.88
2023-03-18T13:45:33.756Z,97976.22
2023-03-18T13:50:40.272Z,97977.41
2023-03-18T13:55:48.330Z,97974.31
2023-03-18T14:00:56.776Z,97962.09
2023-03-18T14:06:04.656Z,97968.59
2023-03-18T14:11:23.053Z,97955.50
2023-03-18T14:16:30.074Z,97955.72
2023-03-18T14:21:34.241Z,97954.00
2023-03-18T14:26:37.830Z,97963.13
2023-03-18T14:31:39.698Z,97961.09
2023-03-18T14:37:07.554Z,97956.13
2023-03-18T14:42:28.798Z,97956.63
2023-03-18T14:47:52.094Z,97943.41
2023-03-18T14:53:02.141Z,97946.63
2023-03-18T14:58:04.910Z,97945.16
2023-03-18T15:03:16.833Z,97933.91
2023-03-18T15:08:22.934Z,97936.81
2023-03-18T15:13:28.797Z,97944.75
2023-03-18T15:18:36.349Z,97939.34
2023-03-18T15:23:45.929Z,97951.59
2023-03-18T15:28:49.385Z,97949.78
2023-03-18T15:34:19.046Z,97942.41
2023-03-18T15:39:22.537Z,97958.19
2023-03-18T15:44:40.823Z,97956.28
2023-03-18T15:49:54.839Z,97960.22
2023-03-18T15:54:57.900Z,97964.97
2023-03-18T16:00:00.271Z,97977.50
2023-03-18T16:05:14.832Z,97971.75
2023-03-18T16:10:22.752Z,97975.75
2023-03-18T16:15:27.921Z,97974.63
2023-03-18T16:20:31.536Z,97981.69
2023-03-18T16:25:34.665Z,97991.53
2023-03-18T16:30:40.462Z,97986.88
2023-03-18T16:35:43.659Z,97993.56
2023-03-18T16:40:46.778Z,97990.09
2023-03-18T16:45:50.695Z,97999.84
2023-03-18T16:50:52.872Z,98004.56
2023-03-18T16:55:58.400Z,98011.59
2023-03-18T17:01:00.375Z,98018.22
2023-03-18T17:06:02.477Z,98024.00
2023-03-18T17:11:04.891Z,98025.13
2023-03-18T17:16:18.208Z,98020.03
2023-03-18T17:21:19.989Z,98028.94
2023-03-18T17:26:22.813Z,98021.06
2023-03-18T17:31:24.899Z,98031.53
2023-03-18T17:36:27.721Z,98031.09
2023-03-18T17:41:34.479Z,98042.00
2023-03-18T17:46:36.475Z,98047.03
2023-03-18T17:51:38.842Z,98039.22
2023-03-18T17:56:40.864Z,98043.03
2023-03-18T18:01:45.493Z,98053.09
2023-03-18T18:06:49.147Z,98057.72
2023-03-18T18:11:51.201Z,98060.38
2023-03-18T18:16:56.077Z,98052.53
2023-03-18T18:21:58.670Z,98054.41
2023-03-18T18:27:00.569Z,98048.06
2023-03-18T18:32:02.493Z,98053.47
2023-03-18T18:37:04.860Z,98049.47
2023-03-18T18:42:07.643Z,98050.09
2023-03-18T18:47:19.096Z,98051.91
2023-03-18T18:52:21.141Z,98056.16
2023-03-18T18:57:31.105Z,98040.47
2023-03-18T19:02:40.856Z,98032.53
2023-03-18T19:07:42.837Z,98038.53
2023-03-18T19:12:44.769Z,98042.22
2023-03-18T19:17:46.851Z,98035.84
2023-03-18T19:22:50.810Z,98029.50
2023-03-18T19:27:54.679Z,98032.91
2023-03-18T19:32:57.344Z,98046.03
2023-03-18T19:37:59.891Z,98045.53
2023-03-18T19:43:02.119Z,98053.22
2023-03-18T19:48:04.263Z,98055.03
2023-03-18T19:53:14.424Z,98051.78
2023-03-18T19:58:27.349Z,98054.38
2023-03-18T20:03:29.128Z,98054.31
2023-03-18T20:08:31.231Z,98056.25
2023-03-18T20:13:33.052Z,98056.56
2023-03-18T20:18:35.436Z,98056.16
2023-03-18T20:23:37.855Z,98044.78
2023-03-18T20:28:45.306Z,98054.34
2023-03-18T20:33:47.342Z,98056.88
2023-03-18T20:38:50.617Z,98062.50
2023-03-18T20:43:52.745Z,98059.66
2023-03-18T20:48:54.747Z,98060.28
2023-03-18T20:53:57.041Z,98057.81
2023-03-18T20:58:58.826Z,98057.63
2023-03-18T21:04:02.608Z,98056.81
2023-03-18T21:09:06.273Z,98051.41
2023-03-18T21:14:15.301Z,98049.13
2023-03-18T21:19:17.633Z,98054.56
2023-03-18T21:24:26.036Z,98059.69
2023-03-18T21:29:27.988Z,98067.03
2023-03-18T21:34:29.886Z,98059.97
2023-03-18T21:39:32.486Z,98062.25
2023-03-18T21:44:34.370Z,98062.97
2023-03-18T21:49:36.253Z,98054.41
2023-03-18T21:54:38.064Z,98057.06
2023-03-18T21:59:39.855Z,98048.84
2023-03-18T22:04:41.776Z,98052.56
2023-03-18T22:09:45.144Z,98050.84
2023-03-18T22:14:46.945Z,98052.28
2023-03-18T22:19:49.967Z,98057.69
2023-03-18T22:24:52.540Z,98068.25
2023-03-18T22:29:57.893Z,98057.06
2023-03-18T22:34:59.752Z,98061.91
2023-03-18T22:40:01.534Z,98064.72
2023-03-18T22:45:03.694Z,98058.38
2023-03-18T22:50:05.926Z,98056.25
2023-03-18T22:55:19.481Z,98046.28
2023-03-18T23:00:32.827Z,98059.41
2023-03-18T23:05:34.802Z,98057.53
2023-03-18T23:10:36.726Z,98055.31
2023-03-18T23:15:38.486Z,98049.31
2023-03-18T23:20:40.440Z,98044.94
2023-03-18T23:25:44.278Z,98045.94
2023-03-18T23:30:51.957Z,98042.72
2023-03-18T23:35:53.901Z,98042.63
2023-03-18T23:40:55.763Z,98047.09
2023-03-18T23:45:57.693Z,98057.69
2023-03-18T23:50:59.746Z,98070.66
2023-03-18T23:56:01.777Z,98057.06
